sensor_id;sensor_type;location;lat;lon;timestamp;P1;durP1;ratioP1;P2;durP2;ratioP2
72301;SDS011;60235;52.234;5.186;2023-04-15T00:01:52;10.45;;;4.50;;
72301;SDS011;60235;52.234;5.186;2023-04-15T00:04:18;11.45;;;3.88;;
72301;SDS011;60235;52.234;5.186;2023-04-15T00:06:51;14.18;;;5.60;;
72301;SDS011;60235;52.234;5.186;2023-04-15T00:09:17;11.18;;;4.45;;
72301;SDS011;60235;52.234;5.186;2023-04-15T00:11:44;11.57;;;4.53;;
72301;SDS011;60235;52.234;5.186;2023-04-15T00:14:10;11.93;;;4.55;;
72301;SDS011;60235;52.234;5.186;2023-04-15T00:16:36;10.73;;;4.15;;
72301;SDS011;60235;52.234;5.186;2023-04-15T00:19:02;10.20;;;3.80;;
72301;SDS011;60235;52.234;5.186;2023-04-15T00:21:29;9.07;;;3.92;;
72301;SDS011;60235;52.234;5.186;2023-04-15T00:23:55;12.27;;;4.13;;
72301;SDS011;60235;52.234;5.186;2023-04-15T00:26:21;11.98;;;4.47;;
72301;SDS011;60235;52.234;5.186;2023-04-15T00:28:47;11.88;;;4.63;;
72301;SDS011;60235;52.234;5.186;2023-04-15T00:31:13;7.85;;;3.45;;
72301;SDS011;60235;52.234;5.186;2023-04-15T00:33:39;14.73;;;4.38;;
72301;SDS011;60235;52.234;5.186;2023-04-15T00:36:06;12.32;;;4.35;;
72301;SDS011;60235;52.234;5.186;2023-04-15T00:38:32;11.45;;;4.13;;
72301;SDS011;60235;52.234;5.186;2023-04-15T00:40:58;9.98;;;4.28;;
72301;SDS011;60235;52.234;5.186;2023-04-15T00:43:24;10.98;;;4.07;;
72301;SDS011;60235;52.234;5.186;2023-04-15T00:45:52;12.70;;;4.38;;
72301;SDS011;60235;52.234;5.186;2023-04-15T00:48:19;15.98;;;4.55;;
72301;SDS011;60235;52.234;5.186;2023-04-15T00:50:45;11.10;;;4.40;;
72301;SDS011;60235;52.234;5.186;2023-04-15T00:53:11;12.77;;;4.40;;
72301;SDS011;60235;52.234;5.186;2023-04-15T00:55:37;12.52;;;5.07;;
72301;SDS011;60235;52.234;5.186;2023-04-15T00:58:03;11.25;;;4.20;;
72301;SDS011;60235;52.234;5.186;2023-04-15T01:00:29;13.00;;;4.32;;
72301;SDS011;60235;52.234;5.186;2023-04-15T01:02:55;11.68;;;4.57;;
72301;SDS011;60235;52.234;5.186;2023-04-15T01:05:21;10.18;;;4.22;;
72301;SDS011;60235;52.234;5.186;2023-04-15T01:07:47;10.63;;;4.18;;
72301;SDS011;60235;52.234;5.186;2023-04-15T01:10:13;9.93;;;4.40;;
72301;SDS011;60235;52.234;5.186;2023-04-15T01:12:39;11.52;;;4.45;;
72301;SDS011;60235;52.234;5.186;2023-04-15T01:15:06;11.18;;;3.83;;
72301;SDS011;60235;52.234;5.186;2023-04-15T01:17:33;11.15;;;4.45;;
72301;SDS011;60235;52.234;5.186;2023-04-15T01:19:59;11.20;;;4.85;;
72301;SDS011;60235;52.234;5.186;2023-04-15T01:22:26;10.40;;;4.32;;
72301;SDS011;60235;52.234;5.186;2023-04-15T01:25:00;13.65;;;4.60;;
72301;SDS011;60235;52.234;5.186;2023-04-15T01:27:28;12.15;;;4.38;;
72301;SDS011;60235;52.234;5.186;2023-04-15T01:29:55;10.23;;;4.80;;
72301;SDS011;60235;52.234;5.186;2023-04-15T01:32:21;13.05;;;4.20;;
72301;SDS011;60235;52.234;5.186;2023-04-15T01:34:47;11.68;;;4.53;;
72301;SDS011;60235;52.234;5.186;2023-04-15T01:37:13;15.45;;;4.68;;
72301;SDS011;60235;52.234;5.186;2023-04-15T01:39:39;11.85;;;4.30;;
72301;SDS011;60235;52.234;5.186;2023-04-15T01:42:05;13.55;;;4.78;;
72301;SDS011;60235;52.234;5.186;2023-04-15T01:44:31;10.23;;;4.30;;
72301;SDS011;60235;52.234;5.186;2023-04-15T01:46:57;12.40;;;4.22;;
72301;SDS011;60235;52.234;5.186;2023-04-15T01:49:23;9.77;;;4.55;;
72301;SDS011;60235;52.234;5.186;2023-04-15T01:51:49;13.38;;;4.75;;
72301;SDS011;60235;52.234;5.186;2023-04-15T01:54:15;11.65;;;4.25;;
72301;SDS011;60235;52.234;5.186;2023-04-15T01:56:41;20.67;;;4.53;;
72301;SDS011;60235;52.234;5.186;2023-04-15T01:59:08;9.05;;;3.95;;
72301;SDS011;60235;52.234;5.186;2023-04-15T02:01:34;10.80;;;4.78;;
72301;SDS011;60235;52.234;5.186;2023-04-15T02:04:00;11.05;;;4.63;;
72301;SDS011;60235;52.234;5.186;2023-04-15T02:06:25;9.80;;;4.25;;
72301;SDS011;60235;52.234;5.186;2023-04-15T02:08:52;10.07;;;3.88;;
72301;SDS011;60235;52.234;5.186;2023-04-15T02:11:18;10.45;;;4.40;;
72301;SDS011;60235;52.234;5.186;2023-04-15T02:13:44;12.73;;;4.13;;
72301;SDS011;60235;52.234;5.186;2023-04-15T02:16:16;15.35;;;4.07;;
72301;SDS011;60235;52.234;5.186;2023-04-15T02:18:43;12.20;;;4.57;;
72301;SDS011;60235;52.234;5.186;2023-04-15T02:21:09;11.10;;;4.82;;
72301;SDS011;60235;52.234;5.186;2023-04-15T02:23:35;12.02;;;3.97;;
72301;SDS011;60235;52.234;5.186;2023-04-15T02:26:01;11.35;;;3.88;;
72301;SDS011;60235;52.234;5.186;2023-04-15T02:28:27;9.82;;;4.47;;
72301;SDS011;60235;52.234;5.186;2023-04-15T02:30:53;11.40;;;4.60;;
72301;SDS011;60235;52.234;5.186;2023-04-15T02:33:21;13.70;;;5.43;;
72301;SDS011;60235;52.234;5.186;2023-04-15T02:35:47;12.43;;;4.30;;
72301;SDS011;60235;52.234;5.186;2023-04-15T02:38:13;11.98;;;4.07;;
72301;SDS011;60235;52.234;5.186;2023-04-15T02:40:41;10.73;;;4.30;;
72301;SDS011;60235;52.234;5.186;2023-04-15T02:43:08;10.50;;;4.82;;
72301;SDS011;60235;52.234;5.186;2023-04-15T02:45:34;10.73;;;4.57;;
72301;SDS011;60235;52.234;5.186;2023-04-15T02:48:00;11.57;;;4.15;;
72301;SDS011;60235;52.234;5.186;2023-04-15T02:50:30;10.20;;;4.10;;
72301;SDS011;60235;52.234;5.186;2023-04-15T02:52:56;11.48;;;4.15;;
72301;SDS011;60235;52.234;5.186;2023-04-15T02:55:22;11.73;;;4.10;;
72301;SDS011;60235;52.234;5.186;2023-04-15T02:57:48;10.80;;;4.18;;
72301;SDS011;60235;52.234;5.186;2023-04-15T03:00:14;9.40;;;4.47;;
72301;SDS011;60235;52.234;5.186;2023-04-15T03:02:40;10.30;;;4.72;;
72301;SDS011;60235;52.234;5.186;2023-04-15T03:05:10;11.35;;;4.47;;
72301;SDS011;60235;52.234;5.186;2023-04-15T03:07:36;14.48;;;4.72;;
72301;SDS011;60235;52.234;5.186;2023-04-15T03:10:04;9.55;;;4.70;;
72301;SDS011;60235;52.234;5.186;2023-04-15T03:12:30;9.60;;;4.20;;
72301;SDS011;60235;52.234;5.186;2023-04-15T03:14:56;11.18;;;4.30;;
72301;SDS011;60235;52.234;5.186;2023-04-15T03:17:22;10.48;;;4.45;;
72301;SDS011;60235;52.234;5.186;2023-04-15T03:19:48;11.43;;;4.68;;
72301;SDS011;60235;52.234;5.186;2023-04-15T03:22:14;12.40;;;4.40;;
72301;SDS011;60235;52.234;5.186;2023-04-15T03:24:40;11.55;;;4.85;;
72301;SDS011;60235;52.234;5.186;2023-04-15T03:27:06;10.57;;;4.40;;
72301;SDS011;60235;52.234;5.186;2023-04-15T03:29:32;11.07;;;4.63;;
72301;SDS011;60235;52.234;5.186;2023-04-15T03:31:58;11.50;;;4.72;;
72301;SDS011;60235;52.234;5.186;2023-04-15T03:34:25;10.40;;;4.30;;
72301;SDS011;60235;52.234;5.186;2023-04-15T03:36:51;10.65;;;4.55;;
72301;SDS011;60235;52.234;5.186;2023-04-15T03:39:17;10.38;;;4.68;;
72301;SDS011;60235;52.234;5.186;2023-04-15T03:41:43;12.43;;;4.53;;
72301;SDS011;60235;52.234;5.186;2023-04-15T03:44:09;14.07;;;4.78;;
72301;SDS011;60235;52.234;5.186;2023-04-15T03:46:35;10.82;;;4.53;;
72301;SDS011;60235;52.234;5.186;2023-04-15T03:49:01;14.35;;;4.78;;
72301;SDS011;60235;52.234;5.186;2023-04-15T03:51:27;13.30;;;4.70;;
72301;SDS011;60235;52.234;5.186;2023-04-15T03:53:53;14.70;;;4.90;;
72301;SDS011;60235;52.234;5.186;2023-04-15T03:56:20;12.63;;;4.80;;
72301;SDS011;60235;52.234;5.186;2023-04-15T03:58:46;11.52;;;5.28;;
72301;SDS011;60235;52.234;5.186;2023-04-15T04:01:11;10.75;;;4.72;;
72301;SDS011;60235;52.234;5.186;2023-04-15T04:03:37;10.02;;;4.65;;
72301;SDS011;60235;52.234;5.186;2023-04-15T04:06:03;11.60;;;4.90;;
72301;SDS011;60235;52.234;5.186;2023-04-15T04:08:30;14.73;;;5.35;;
72301;SDS011;60235;52.234;5.186;2023-04-15T04:10:56;11.10;;;4.93;;
72301;SDS011;60235;52.234;5.186;2023-04-15T04:13:22;14.80;;;4.88;;
72301;SDS011;60235;52.234;5.186;2023-04-15T04:15:48;10.95;;;5.15;;
72301;SDS011;60235;52.234;5.186;2023-04-15T04:18:14;11.07;;;5.05;;
72301;SDS011;60235;52.234;5.186;2023-04-15T04:20:40;11.55;;;4.72;;
72301;SDS011;60235;52.234;5.186;2023-04-15T04:23:06;14.50;;;5.55;;
72301;SDS011;60235;52.234;5.186;2023-04-15T04:25:32;16.08;;;5.70;;
72301;SDS011;60235;52.234;5.186;2023-04-15T04:27:58;12.77;;;5.13;;
72301;SDS011;60235;52.234;5.186;2023-04-15T04:30:24;12.52;;;4.97;;
72301;SDS011;60235;52.234;5.186;2023-04-15T04:32:50;12.45;;;5.47;;
72301;SDS011;60235;52.234;5.186;2023-04-15T04:35:16;12.32;;;5.50;;
72301;SDS011;60235;52.234;5.186;2023-04-15T04:37:42;14.00;;;5.57;;
72301;SDS011;60235;52.234;5.186;2023-04-15T04:40:08;13.13;;;4.97;;
72301;SDS011;60235;52.234;5.186;2023-04-15T04:42:35;13.05;;;5.28;;
72301;SDS011;60235;52.234;5.186;2023-04-15T04:45:01;11.88;;;5.65;;
72301;SDS011;60235;52.234;5.186;2023-04-15T04:47:27;13.90;;;5.40;;
72301;SDS011;60235;52.234;5.186;2023-04-15T04:49:54;11.80;;;5.22;;
72301;SDS011;60235;52.234;5.186;2023-04-15T04:52:20;13.20;;;5.35;;
72301;SDS011;60235;52.234;5.186;2023-04-15T04:54:46;14.38;;;5.40;;
72301;SDS011;60235;52.234;5.186;2023-04-15T04:57:12;12.70;;;5.05;;
72301;SDS011;60235;52.234;5.186;2023-04-15T04:59:38;12.20;;;5.25;;
72301;SDS011;60235;52.234;5.186;2023-04-15T05:02:04;12.80;;;5.78;;
72301;SDS011;60235;52.234;5.186;2023-04-15T05:04:30;13.77;;;5.53;;
72301;SDS011;60235;52.234;5.186;2023-04-15T05:06:56;14.02;;;5.57;;
72301;SDS011;60235;52.234;5.186;2023-04-15T05:09:23;13.05;;;5.53;;
72301;SDS011;60235;52.234;5.186;2023-04-15T05:11:49;15.50;;;5.45;;
72301;SDS011;60235;52.234;5.186;2023-04-15T05:14:15;14.15;;;5.72;;
72301;SDS011;60235;52.234;5.186;2023-04-15T05:16:41;12.23;;;5.97;;
72301;SDS011;60235;52.234;5.186;2023-04-15T05:19:07;13.65;;;5.95;;
72301;SDS011;60235;52.234;5.186;2023-04-15T05:21:33;13.93;;;5.60;;
72301;SDS011;60235;52.234;5.186;2023-04-15T05:23:59;14.77;;;5.88;;
72301;SDS011;60235;52.234;5.186;2023-04-15T05:26:25;13.23;;;5.72;;
72301;SDS011;60235;52.234;5.186;2023-04-15T05:28:52;11.93;;;5.38;;
72301;SDS011;60235;52.234;5.186;2023-04-15T05:31:18;12.88;;;5.90;;
72301;SDS011;60235;52.234;5.186;2023-04-15T05:33:44;12.85;;;6.13;;
72301;SDS011;60235;52.234;5.186;2023-04-15T05:36:10;15.68;;;6.35;;
72301;SDS011;60235;52.234;5.186;2023-04-15T05:38:36;14.48;;;5.68;;
72301;SDS011;60235;52.234;5.186;2023-04-15T05:41:02;13.80;;;6.50;;
72301;SDS011;60235;52.234;5.186;2023-04-15T05:43:28;13.07;;;5.65;;
72301;SDS011;60235;52.234;5.186;2023-04-15T05:45:54;15.80;;;6.40;;
72301;SDS011;60235;52.234;5.186;2023-04-15T05:48:20;13.85;;;6.60;;
72301;SDS011;60235;52.234;5.186;2023-04-15T05:50:46;17.10;;;6.35;;
72301;SDS011;60235;52.234;5.186;2023-04-15T05:53:12;12.65;;;5.90;;
72301;SDS011;60235;52.234;5.186;2023-04-15T05:55:39;17.27;;;6.78;;
72301;SDS011;60235;52.234;5.186;2023-04-15T05:58:05;16.13;;;7.22;;
72301;SDS011;60235;52.234;5.186;2023-04-15T06:00:31;16.20;;;7.13;;
72301;SDS011;60235;52.234;5.186;2023-04-15T06:02:57;18.83;;;7.35;;
72301;SDS011;60235;52.234;5.186;2023-04-15T06:05:23;14.43;;;6.93;;
72301;SDS011;60235;52.234;5.186;2023-04-15T06:07:49;16.95;;;6.88;;
72301;SDS011;60235;52.234;5.186;2023-04-15T06:10:15;14.20;;;6.82;;
72301;SDS011;60235;52.234;5.186;2023-04-15T06:12:41;14.85;;;6.95;;
72301;SDS011;60235;52.234;5.186;2023-04-15T06:15:07;15.50;;;7.03;;
72301;SDS011;60235;52.234;5.186;2023-04-15T06:17:34;15.38;;;7.28;;
72301;SDS011;60235;52.234;5.186;2023-04-15T06:20:01;16.30;;;7.10;;
72301;SDS011;60235;52.234;5.186;2023-04-15T06:22:27;20.05;;;7.40;;
72301;SDS011;60235;52.234;5.186;2023-04-15T06:24:53;17.15;;;7.28;;
72301;SDS011;60235;52.234;5.186;2023-04-15T06:27:19;16.70;;;7.85;;
72301;SDS011;60235;52.234;5.186;2023-04-15T06:29:45;16.45;;;6.93;;
72301;SDS011;60235;52.234;5.186;2023-04-15T06:32:11;21.20;;;8.00;;
72301;SDS011;60235;52.234;5.186;2023-04-15T06:34:37;15.38;;;7.65;;
72301;SDS011;60235;52.234;5.186;2023-04-15T06:37:03;15.50;;;7.28;;
72301;SDS011;60235;52.234;5.186;2023-04-15T06:39:30;18.15;;;7.72;;
72301;SDS011;60235;52.234;5.186;2023-04-15T06:41:56;15.90;;;8.00;;
72301;SDS011;60235;52.234;5.186;2023-04-15T06:44:22;16.55;;;7.38;;
72301;SDS011;60235;52.234;5.186;2023-04-15T06:46:48;16.30;;;7.70;;
72301;SDS011;60235;52.234;5.186;2023-04-15T06:49:14;15.30;;;7.45;;
72301;SDS011;60235;52.234;5.186;2023-04-15T06:51:41;20.52;;;7.63;;
72301;SDS011;60235;52.234;5.186;2023-04-15T06:54:07;17.88;;;7.35;;
72301;SDS011;60235;52.234;5.186;2023-04-15T06:56:33;16.13;;;7.93;;
72301;SDS011;60235;52.234;5.186;2023-04-15T06:58:59;17.92;;;7.50;;
72301;SDS011;60235;52.234;5.186;2023-04-15T07:01:26;17.10;;;7.18;;
72301;SDS011;60235;52.234;5.186;2023-04-15T07:03:52;16.98;;;7.07;;
72301;SDS011;60235;52.234;5.186;2023-04-15T07:06:18;16.55;;;6.88;;
72301;SDS011;60235;52.234;5.186;2023-04-15T07:08:44;14.95;;;7.00;;
72301;SDS011;60235;52.234;5.186;2023-04-15T07:11:10;13.82;;;6.57;;
72301;SDS011;60235;52.234;5.186;2023-04-15T07:13:36;16.05;;;6.43;;
72301;SDS011;60235;52.234;5.186;2023-04-15T07:16:02;14.10;;;6.30;;
72301;SDS011;60235;52.234;5.186;2023-04-15T07:18:28;13.43;;;6.50;;
72301;SDS011;60235;52.234;5.186;2023-04-15T07:20:54;13.95;;;6.80;;
72301;SDS011;60235;52.234;5.186;2023-04-15T07:23:20;16.33;;;6.03;;
72301;SDS011;60235;52.234;5.186;2023-04-15T07:25:46;13.48;;;5.78;;
72301;SDS011;60235;52.234;5.186;2023-04-15T07:28:12;12.85;;;5.75;;
72301;SDS011;60235;52.234;5.186;2023-04-15T07:30:38;13.35;;;5.78;;
72301;SDS011;60235;52.234;5.186;2023-04-15T07:33:04;15.13;;;5.68;;
72301;SDS011;60235;52.234;5.186;2023-04-15T07:35:32;12.68;;;6.20;;
72301;SDS011;60235;52.234;5.186;2023-04-15T07:37:58;13.23;;;6.72;;
72301;SDS011;60235;52.234;5.186;2023-04-15T07:40:23;13.00;;;5.70;;
72301;SDS011;60235;52.234;5.186;2023-04-15T07:42:50;11.07;;;5.38;;
72301;SDS011;60235;52.234;5.186;2023-04-15T07:45:16;13.30;;;5.25;;
72301;SDS011;60235;52.234;5.186;2023-04-15T07:47:42;10.98;;;5.05;;
72301;SDS011;60235;52.234;5.186;2023-04-15T07:50:08;11.63;;;5.35;;
72301;SDS011;60235;52.234;5.186;2023-04-15T07:52:37;12.02;;;4.85;;
72301;SDS011;60235;52.234;5.186;2023-04-15T07:55:04;13.32;;;5.50;;
72301;SDS011;60235;52.234;5.186;2023-04-15T07:57:32;13.10;;;5.28;;
72301;SDS011;60235;52.234;5.186;2023-04-15T07:59:58;12.10;;;5.38;;
72301;SDS011;60235;52.234;5.186;2023-04-15T08:02:25;11.35;;;4.80;;
72301;SDS011;60235;52.234;5.186;2023-04-15T08:04:51;11.70;;;5.18;;
72301;SDS011;60235;52.234;5.186;2023-04-15T08:07:17;11.52;;;5.38;;
72301;SDS011;60235;52.234;5.186;2023-04-15T08:09:43;13.23;;;5.32;;
72301;SDS011;60235;52.234;5.186;2023-04-15T08:12:10;12.60;;;5.22;;
72301;SDS011;60235;52.234;5.186;2023-04-15T08:14:37;12.10;;;5.10;;
72301;SDS011;60235;52.234;5.186;2023-04-15T08:17:03;14.00;;;5.50;;
72301;SDS011;60235;52.234;5.186;2023-04-15T08:19:29;12.30;;;5.50;;
72301;SDS011;60235;52.234;5.186;2023-04-15T08:21:56;9.60;;;4.22;;
72301;SDS011;60235;52.234;5.186;2023-04-15T08:24:22;12.57;;;4.35;;
72301;SDS011;60235;52.234;5.186;2023-04-15T08:26:50;11.30;;;5.07;;
72301;SDS011;60235;52.234;5.186;2023-04-15T08:29:16;10.18;;;4.60;;
72301;SDS011;60235;52.234;5.186;2023-04-15T08:31:42;10.05;;;4.47;;
72301;SDS011;60235;52.234;5.186;2023-04-15T08:34:08;10.57;;;4.20;;
72301;SDS011;60235;52.234;5.186;2023-04-15T08:36:35;9.25;;;4.00;;
72301;SDS011;60235;52.234;5.186;2023-04-15T08:39:01;10.50;;;4.47;;
72301;SDS011;60235;52.234;5.186;2023-04-15T08:41:30;11.25;;;3.67;;
72301;SDS011;60235;52.234;5.186;2023-04-15T08:44:03;9.68;;;3.70;;
72301;SDS011;60235;52.234;5.186;2023-04-15T08:46:30;8.27;;;3.60;;
72301;SDS011;60235;52.234;5.186;2023-04-15T08:48:58;8.45;;;3.78;;
72301;SDS011;60235;52.234;5.186;2023-04-15T08:51:25;8.82;;;3.63;;
72301;SDS011;60235;52.234;5.186;2023-04-15T08:53:51;7.53;;;2.80;;
72301;SDS011;60235;52.234;5.186;2023-04-15T08:56:17;7.82;;;3.10;;
72301;SDS011;60235;52.234;5.186;2023-04-15T08:58:44;8.13;;;3.05;;
72301;SDS011;60235;52.234;5.186;2023-04-15T09:01:11;8.98;;;3.20;;
72301;SDS011;60235;52.234;5.186;2023-04-15T09:03:38;9.30;;;3.40;;
72301;SDS011;60235;52.234;5.186;2023-04-15T09:06:04;11.40;;;3.80;;
72301;SDS011;60235;52.234;5.186;2023-04-15T09:08:31;12.40;;;3.95;;
72301;SDS011;60235;52.234;5.186;2023-04-15T09:10:59;11.02;;;3.95;;
72301;SDS011;60235;52.234;5.186;2023-04-15T09:13:25;9.15;;;4.07;;
72301;SDS011;60235;52.234;5.186;2023-04-15T09:15:52;11.48;;;3.80;;
72301;SDS011;60235;52.234;5.186;2023-04-15T09:18:31;9.30;;;4.00;;
72301;SDS011;60235;52.234;5.186;2023-04-15T09:21:03;8.77;;;3.28;;
72301;SDS011;60235;52.234;5.186;2023-04-15T09:23:31;8.32;;;2.85;;
72301;SDS011;60235;52.234;5.186;2023-04-15T09:25:58;9.70;;;3.30;;
72301;SDS011;60235;52.234;5.186;2023-04-15T09:28:24;11.43;;;3.05;;
72301;SDS011;60235;52.234;5.186;2023-04-15T09:30:56;6.10;;;1.90;;
72301;SDS011;60235;52.234;5.186;2023-04-15T09:33:23;5.72;;;1.65;;
72301;SDS011;60235;52.234;5.186;2023-04-15T09:36:00;6.38;;;1.70;;
72301;SDS011;60235;52.234;5.186;2023-04-15T09:38:27;5.38;;;1.63;;
72301;SDS011;60235;52.234;5.186;2023-04-15T09:40:53;6.15;;;2.20;;
72301;SDS011;60235;52.234;5.186;2023-04-15T09:43:20;7.38;;;1.90;;
72301;SDS011;60235;52.234;5.186;2023-04-15T09:45:47;6.13;;;1.98;;
72301;SDS011;60235;52.234;5.186;2023-04-15T09:48:14;5.50;;;1.95;;
72301;SDS011;60235;52.234;5.186;2023-04-15T09:50:41;8.38;;;2.10;;
72301;SDS011;60235;52.234;5.186;2023-04-15T09:53:08;5.95;;;2.33;;
72301;SDS011;60235;52.234;5.186;2023-04-15T09:55:36;6.85;;;2.22;;
72301;SDS011;60235;52.234;5.186;2023-04-15T09:58:07;7.43;;;2.67;;
72301;SDS011;60235;52.234;5.186;2023-04-15T10:00:34;8.98;;;2.63;;
72301;SDS011;60235;52.234;5.186;2023-04-15T10:03:00;6.65;;;2.40;;
72301;SDS011;60235;52.234;5.186;2023-04-15T10:05:27;7.80;;;2.63;;
72301;SDS011;60235;52.234;5.186;2023-04-15T10:07:54;7.72;;;3.03;;
72301;SDS011;60235;52.234;5.186;2023-04-15T10:10:20;8.32;;;2.78;;
72301;SDS011;60235;52.234;5.186;2023-04-15T10:12:46;7.50;;;2.70;;
72301;SDS011;60235;52.234;5.186;2023-04-15T10:15:15;8.32;;;3.30;;
72301;SDS011;60235;52.234;5.186;2023-04-15T10:17:42;7.95;;;3.00;;
72301;SDS011;60235;52.234;5.186;2023-04-15T10:20:08;7.95;;;3.20;;
72301;SDS011;60235;52.234;5.186;2023-04-15T10:22:36;8.10;;;2.95;;
72301;SDS011;60235;52.234;5.186;2023-04-15T10:25:03;9.18;;;2.80;;
72301;SDS011;60235;52.234;5.186;2023-04-15T10:27:31;8.27;;;3.17;;
72301;SDS011;60235;52.234;5.186;2023-04-15T10:29:59;8.50;;;2.80;;
72301;SDS011;60235;52.234;5.186;2023-04-15T10:32:27;9.65;;;3.70;;
72301;SDS011;60235;52.234;5.186;2023-04-15T10:34:54;8.50;;;3.75;;
72301;SDS011;60235;52.234;5.186;2023-04-15T10:37:21;11.85;;;3.85;;
72301;SDS011;60235;52.234;5.186;2023-04-15T10:39:47;9.07;;;3.97;;
72301;SDS011;60235;52.234;5.186;2023-04-15T10:42:15;9.18;;;3.35;;
72301;SDS011;60235;52.234;5.186;2023-04-15T10:44:47;7.75;;;3.28;;
72301;SDS011;60235;52.234;5.186;2023-04-15T10:47:16;7.88;;;3.13;;
72301;SDS011;60235;52.234;5.186;2023-04-15T10:54:37;9.30;;;3.20;;
72301;SDS011;60235;52.234;5.186;2023-04-15T10:59:37;8.15;;;3.13;;
72301;SDS011;60235;52.234;5.186;2023-04-15T11:02:06;11.88;;;3.50;;
72301;SDS011;60235;52.234;5.186;2023-04-15T11:12:49;8.95;;;3.60;;
72301;SDS011;60235;52.234;5.186;2023-04-15T11:17:57;8.18;;;2.97;;
72301;SDS011;60235;52.234;5.186;2023-04-15T11:20:24;9.02;;;2.90;;
72301;SDS011;60235;52.234;5.186;2023-04-15T11:22:51;6.93;;;2.40;;
72301;SDS011;60235;52.234;5.186;2023-04-15T11:25:35;8.85;;;2.55;;
72301;SDS011;60235;52.234;5.186;2023-04-15T11:28:02;6.32;;;2.08;;
72301;SDS011;60235;52.234;5.186;2023-04-15T11:30:29;5.80;;;1.80;;
72301;SDS011;60235;52.234;5.186;2023-04-15T11:33:00;8.13;;;2.30;;
72301;SDS011;60235;52.234;5.186;2023-04-15T11:35:26;5.90;;;1.95;;
72301;SDS011;60235;52.234;5.186;2023-04-15T11:37:52;6.50;;;2.40;;
72301;SDS011;60235;52.234;5.186;2023-04-15T11:40:29;5.90;;;2.10;;
72301;SDS011;60235;52.234;5.186;2023-04-15T11:45:30;6.95;;;2.33;;
72301;SDS011;60235;52.234;5.186;2023-04-15T11:48:06;6.75;;;2.15;;
72301;SDS011;60235;52.234;5.186;2023-04-15T11:50:32;7.75;;;2.10;;
72301;SDS011;60235;52.234;5.186;2023-04-15T11:52:59;8.40;;;2.05;;
72301;SDS011;60235;52.234;5.186;2023-04-15T11:55:27;5.53;;;2.28;;
72301;SDS011;60235;52.234;5.186;2023-04-15T11:58:09;6.72;;;2.13;;
72301;SDS011;60235;52.234;5.186;2023-04-15T12:00:37;6.05;;;2.10;;
72301;SDS011;60235;52.234;5.186;2023-04-15T12:03:23;6.45;;;2.00;;
72301;SDS011;60235;52.234;5.186;2023-04-15T12:08:49;7.53;;;1.80;;
72301;SDS011;60235;52.234;5.186;2023-04-15T12:11:19;8.00;;;2.45;;
72301;SDS011;60235;52.234;5.186;2023-04-15T12:13:46;7.20;;;2.10;;
72301;SDS011;60235;52.234;5.186;2023-04-15T12:16:15;7.85;;;1.70;;
72301;SDS011;60235;52.234;5.186;2023-04-15T12:21:08;7.72;;;2.42;;
72301;SDS011;60235;52.234;5.186;2023-04-15T12:23:38;7.22;;;2.42;;
72301;SDS011;60235;52.234;5.186;2023-04-15T12:26:04;7.68;;;1.88;;
72301;SDS011;60235;52.234;5.186;2023-04-15T12:28:33;5.25;;;2.03;;
72301;SDS011;60235;52.234;5.186;2023-04-15T12:31:05;6.10;;;2.17;;
72301;SDS011;60235;52.234;5.186;2023-04-15T12:33:32;7.40;;;2.20;;
72301;SDS011;60235;52.234;5.186;2023-04-15T12:35:59;8.50;;;2.08;;
72301;SDS011;60235;52.234;5.186;2023-04-15T12:38:25;6.05;;;1.77;;
72301;SDS011;60235;52.234;5.186;2023-04-15T12:40:51;8.18;;;2.20;;
72301;SDS011;60235;52.234;5.186;2023-04-15T12:43:17;7.07;;;2.20;;
72301;SDS011;60235;52.234;5.186;2023-04-15T12:45:43;7.15;;;2.50;;
72301;SDS011;60235;52.234;5.186;2023-04-15T12:48:09;9.40;;;2.42;;
72301;SDS011;60235;52.234;5.186;2023-04-15T12:50:35;8.45;;;2.47;;
72301;SDS011;60235;52.234;5.186;2023-04-15T12:53:01;6.28;;;2.08;;
72301;SDS011;60235;52.234;5.186;2023-04-15T12:55:28;6.70;;;2.00;;
72301;SDS011;60235;52.234;5.186;2023-04-15T12:57:55;8.93;;;2.03;;
72301;SDS011;60235;52.234;5.186;2023-04-15T13:00:21;9.30;;;1.52;;
72301;SDS011;60235;52.234;5.186;2023-04-15T13:02:47;5.43;;;1.75;;
72301;SDS011;60235;52.234;5.186;2023-04-15T13:05:13;7.30;;;1.90;;
72301;SDS011;60235;52.234;5.186;2023-04-15T13:07:40;5.78;;;1.70;;
72301;SDS011;60235;52.234;5.186;2023-04-15T13:10:06;5.45;;;1.77;;
72301;SDS011;60235;52.234;5.186;2023-04-15T13:12:32;6.00;;;1.58;;
72301;SDS011;60235;52.234;5.186;2023-04-15T13:15:04;6.20;;;1.60;;
72301;SDS011;60235;52.234;5.186;2023-04-15T13:19:56;6.05;;;1.23;;
72301;SDS011;60235;52.234;5.186;2023-04-15T13:22:22;5.63;;;1.42;;
72301;SDS011;60235;52.234;5.186;2023-04-15T13:24:48;5.57;;;1.60;;
72301;SDS011;60235;52.234;5.186;2023-04-15T13:27:15;4.90;;;1.30;;
72301;SDS011;60235;52.234;5.186;2023-04-15T13:29:41;5.75;;;1.23;;
72301;SDS011;60235;52.234;5.186;2023-04-15T13:32:07;5.63;;;1.40;;
72301;SDS011;60235;52.234;5.186;2023-04-15T13:34:33;4.05;;;1.20;;
72301;SDS011;60235;52.234;5.186;2023-04-15T13:37:04;5.75;;;1.30;;
72301;SDS011;60235;52.234;5.186;2023-04-15T13:39:30;4.95;;;1.15;;
72301;SDS011;60235;52.234;5.186;2023-04-15T13:41:56;4.18;;;1.30;;
72301;SDS011;60235;52.234;5.186;2023-04-15T13:44:23;3.92;;;1.00;;
72301;SDS011;60235;52.234;5.186;2023-04-15T13:46:49;8.15;;;1.00;;
72301;SDS011;60235;52.234;5.186;2023-04-15T13:49:15;3.17;;;0.95;;
72301;SDS011;60235;52.234;5.186;2023-04-15T13:51:41;4.25;;;1.00;;
72301;SDS011;60235;52.234;5.186;2023-04-15T13:54:07;6.43;;;1.38;;
72301;SDS011;60235;52.234;5.186;2023-04-15T13:56:33;4.93;;;1.85;;
72301;SDS011;60235;52.234;5.186;2023-04-15T13:58:59;6.50;;;1.17;;
72301;SDS011;60235;52.234;5.186;2023-04-15T14:01:26;7.05;;;1.33;;
72301;SDS011;60235;52.234;5.186;2023-04-15T14:03:52;6.18;;;1.13;;
72301;SDS011;60235;52.234;5.186;2023-04-15T14:06:18;5.00;;;1.40;;
72301;SDS011;60235;52.234;5.186;2023-04-15T14:08:44;5.38;;;1.42;;
72301;SDS011;60235;52.234;5.186;2023-04-15T14:11:10;5.90;;;1.05;;
72301;SDS011;60235;52.234;5.186;2023-04-15T14:13:36;5.80;;;1.20;;
72301;SDS011;60235;52.234;5.186;2023-04-15T14:16:03;6.68;;;1.33;;
72301;SDS011;60235;52.234;5.186;2023-04-15T14:18:29;8.63;;;1.30;;
72301;SDS011;60235;52.234;5.186;2023-04-15T14:20:55;4.55;;;0.95;;
72301;SDS011;60235;52.234;5.186;2023-04-15T14:23:21;4.43;;;0.98;;
72301;SDS011;60235;52.234;5.186;2023-04-15T14:25:47;4.05;;;1.00;;
72301;SDS011;60235;52.234;5.186;2023-04-15T14:28:14;4.38;;;1.10;;
72301;SDS011;60235;52.234;5.186;2023-04-15T14:30:40;9.05;;;1.85;;
72301;SDS011;60235;52.234;5.186;2023-04-15T14:33:06;7.75;;;1.40;;
72301;SDS011;60235;52.234;5.186;2023-04-15T14:35:32;5.57;;;1.10;;
72301;SDS011;60235;52.234;5.186;2023-04-15T14:37:58;5.00;;;1.23;;
72301;SDS011;60235;52.234;5.186;2023-04-15T14:40:24;4.50;;;1.20;;
72301;SDS011;60235;52.234;5.186;2023-04-15T14:42:50;6.63;;;1.20;;
72301;SDS011;60235;52.234;5.186;2023-04-15T14:45:16;9.02;;;1.25;;
72301;SDS011;60235;52.234;5.186;2023-04-15T14:47:42;5.63;;;1.00;;
72301;SDS011;60235;52.234;5.186;2023-04-15T14:50:08;5.65;;;1.88;;
72301;SDS011;60235;52.234;5.186;2023-04-15T14:52:34;6.38;;;0.98;;
72301;SDS011;60235;52.234;5.186;2023-04-15T14:55:05;9.93;;;1.70;;
72301;SDS011;60235;52.234;5.186;2023-04-15T14:57:31;4.88;;;0.90;;
72301;SDS011;60235;52.234;5.186;2023-04-15T14:59:57;5.82;;;1.20;;
72301;SDS011;60235;52.234;5.186;2023-04-15T15:02:23;7.50;;;1.23;;
72301;SDS011;60235;52.234;5.186;2023-04-15T15:04:49;5.18;;;1.20;;
72301;SDS011;60235;52.234;5.186;2023-04-15T15:07:15;5.18;;;1.00;;